This is the latest recevied weather packets stored in our database for station/object WX4SGA. If no packets are shown the sender has not sent any weather packets the latest 1 day(s).
| Time | Temp. | Humidity | Pressure | Rain* | Wind** | Luminosity | Snow |
|---|---|---|---|---|---|---|---|
| 1778001322 | 27.22° C | 51% | 1017.3 hPa | 0 mm | 0.45 m/s, 18° | 845 W/m² | - |
| 1778001019 | 27.78° C | 52% | 1016.9 hPa | 0 mm | 0.89 m/s, 30° | 897 W/m² | - |
| 1778000716 | 27.78° C | 50% | 1017.3 hPa | 0 mm | 0.89 m/s, 227° | 153 W/m² | - |
| 1778000412 | 27.22° C | 51% | 1017.3 hPa | 0 mm | 0.45 m/s, 91° | 802 W/m² | - |
| 1778000102 | 27.78° C | 52% | 1017.3 hPa | 0 mm | 0.45 m/s, 40° | 847 W/m² | - |
| 1777999798 | 27.78° C | 50% | 1017.6 hPa | 0 mm | 0.45 m/s, 19° | 849 W/m² | - |
| 1777999494 | 27.22° C | 51% | 1017.3 hPa | 0 mm | 0.45 m/s, 49° | 204 W/m² | - |
| 1777999193 | 27.78° C | 51% | 1017.3 hPa | 0 mm | 0.89 m/s, 86° | 814 W/m² | - |
| 1777998891 | 27.22° C | 52% | 1017.6 hPa | 0 mm | 0.45 m/s, 355° | 859 W/m² | - |
| 1777998590 | 26.67° C | 52% | 1017.6 hPa | 0 mm | 0.89 m/s, 300° | 926 W/m² | - |
| 1777998285 | 26.11° C | 54% | 1017.6 hPa | 0 mm | 1.34 m/s, 143° | 910 W/m² | - |
| 1777997982 | 26.11° C | 55% | 1017.6 hPa | 0 mm | 1.34 m/s, 4° | 132 W/m² | - |
| 1777997678 | 25.56° C | 58% | 1017.6 hPa | 0 mm | 1.34 m/s, 317° | 881 W/m² | - |
| 1777997377 | 27.22° C | 53% | 1017.6 hPa | 0 mm | 0.89 m/s, 127° | 116 W/m² | - |
| 1777997074 | 26.67° C | 57% | 1018 hPa | 0 mm | 0.89 m/s, 47° | 838 W/m² | - |
| 1777996770 | 26.67° C | 56% | 1018 hPa | 0 mm | 0.45 m/s, 323° | 835 W/m² | - |
| 1777996467 | 26.11° C | 60% | 1018 hPa | 0 mm | 0.45 m/s, 227° | 777 W/m² | - |
| 1777996164 | 25.56° C | 60% | 1018 hPa | 0 mm | 0.45 m/s, 3° | 879 W/m² | - |
| 1777995860 | 26.67° C | 58% | 1018 hPa | 0 mm | 1.34 m/s, 126° | 837 W/m² | - |
| 1777995556 | 26.11° C | 59% | 1018 hPa | 0 mm | 0.45 m/s, 43° | 792 W/m² | - |
| 1777995253 | 25.56° C | 62% | 1018 hPa | 0 mm | 0.89 m/s, 285° | 160 W/m² | - |
| 1777994950 | 25.56° C | 61% | 1018 hPa | 0 mm | 1.34 m/s, 154° | 688 W/m² | - |
| 1777994648 | 25° C | 62% | 1018 hPa | 0 mm | 0.45 m/s, 121° | 603 W/m² | - |
| 1777994347 | 25° C | 63% | 1018.3 hPa | 0 mm | 0.45 m/s, 130° | 670 W/m² | - |
| 1777994044 | 25.56° C | 63% | 1018.3 hPa | 0 mm | 0.45 m/s, 72° | 521 W/m² | - |
* Rain latest hour (hover to see other rain measurements)
** Current wind speed in m/s (hover to see current wind gust speed)